Time;durP1;ratioP1;P1;durP2;ratioP2;P2;SDS_P1;SDS_P2;PMS_P1;PMS_P2;Temp;Humidity;BMP_temperature;BMP_pressure;BME280_temperature;BME280_humidity;BME280_pressure;Samples;Min_cycle;Max_cycle;Signal;HPM_P1;HPM_P2
2023/05/19 00:02:22;;;;;;;0.60;0.50;;;11.60;99.90;;;;;;4990917;28;20225;-64
2023/05/19 00:04:50;;;;;;;1.17;0.77;;;11.70;99.90;;;;;;4974192;28;20220;-64
2023/05/19 00:07:19;;;;;;;0.80;0.50;;;11.70;99.90;;;;;;4971580;28;20230;-64
2023/05/19 00:09:48;;;;;;;0.90;0.55;;;11.70;99.90;;;;;;4980928;28;20214;-65
2023/05/19 00:12:16;;;;;;;1.88;0.80;;;11.80;99.90;;;;;;4982446;28;20206;-64
2023/05/19 00:14:45;;;;;;;0.60;0.40;;;11.80;99.90;;;;;;4991674;28;20292;-64
2023/05/19 00:17:15;;;;;;;0.80;0.60;;;11.80;99.90;;;;;;4982774;28;20227;-64
2023/05/19 00:19:45;;;;;;;0.63;0.57;;;11.80;99.90;;;;;;4992036;28;20210;-63
2023/05/19 00:22:13;;;;;;;0.57;0.40;;;11.70;99.90;;;;;;4972125;28;20207;-63
2023/05/19 00:24:42;;;;;;;0.60;0.40;;;11.80;99.90;;;;;;4985462;28;20281;-63
2023/05/19 00:27:09;;;;;;;0.60;0.40;;;11.80;99.90;;;;;;4983582;28;20350;-63
2023/05/19 00:29:37;;;;;;;0.73;0.60;;;11.80;99.90;;;;;;4991881;28;20639;-63
2023/05/19 00:32:05;;;;;;;0.60;0.40;;;11.70;99.90;;;;;;4984088;28;20199;-64
2023/05/19 00:34:34;;;;;;;1.45;0.80;;;11.60;99.90;;;;;;4970895;28;20203;-64
2023/05/19 00:37:03;;;;;;;0.60;0.45;;;11.50;99.90;;;;;;4978522;28;20241;-65
2023/05/19 00:39:31;;;;;;;0.57;0.40;;;11.50;99.90;;;;;;4974151;28;20206;-65
2023/05/19 00:41:59;;;;;;;0.70;0.55;;;11.50;99.90;;;;;;4983212;28;20230;-63
2023/05/19 00:44:27;;;;;;;0.60;0.50;;;11.50;99.90;;;;;;4991334;28;20210;-64
2023/05/19 00:46:55;;;;;;;0.60;0.50;;;11.50;99.90;;;;;;4991410;28;20225;-64
2023/05/19 00:49:23;;;;;;;1.08;0.50;;;11.30;99.90;;;;;;4991210;28;20622;-63
2023/05/19 00:51:51;;;;;;;1.13;0.50;;;11.30;99.90;;;;;;4978551;28;20261;-64
2023/05/19 00:54:21;;;;;;;0.70;0.40;;;11.30;99.90;;;;;;4980171;28;20214;-64
2023/05/19 00:56:50;;;;;;;0.60;0.50;;;11.30;99.90;;;;;;5083044;23;20348;-70
2023/05/19 00:59:18;;;;;;;0.95;0.40;;;11.30;99.90;;;;;;4990821;28;20209;-70
2023/05/19 01:01:47;;;;;;;0.60;0.40;;;11.30;99.90;;;;;;4978069;28;20656;-70
2023/05/19 01:04:16;;;;;;;0.75;0.60;;;11.40;99.90;;;;;;4979862;28;20218;-70
2023/05/19 01:06:44;;;;;;;0.60;0.40;;;11.40;99.90;;;;;;4991168;28;20713;-69
2023/05/19 01:09:12;;;;;;;0.60;0.60;;;11.30;99.90;;;;;;4974355;28;20257;-70
2023/05/19 01:11:41;;;;;;;0.70;0.50;;;11.20;99.90;;;;;;4975899;28;20209;-70
2023/05/19 01:14:09;;;;;;;0.85;0.50;;;11.20;99.90;;;;;;4985816;28;20221;-69
2023/05/19 01:16:42;;;;;;;0.88;0.55;;;11.10;99.90;;;;;;4975843;28;20226;-70
2023/05/19 01:19:24;;;;;;;0.95;0.60;;;11.00;99.90;;;;;;4974674;28;20211;-71
2023/05/19 01:22:32;;;;;;;0.75;0.50;;;11.10;99.90;;;;;;4980426;28;20234;-70
2023/05/19 01:25:37;;;;;;;0.60;0.50;;;11.10;99.90;;;;;;4973124;28;20213;-70
2023/05/19 01:28:31;;;;;;;0.60;0.45;;;11.10;99.90;;;;;;4982777;28;20221;-70
2023/05/19 01:31:03;;;;;;;0.85;0.50;;;11.00;99.90;;;;;;4983211;28;20202;-70
2023/05/19 01:33:33;;;;;;;0.70;0.70;;;11.00;99.90;;;;;;4984245;28;20210;-70
2023/05/19 01:36:03;;;;;;;0.70;0.50;;;11.00;99.90;;;;;;4982700;28;20288;-70
2023/05/19 01:38:34;;;;;;;0.75;0.60;;;11.00;99.90;;;;;;4980716;28;20206;-71
2023/05/19 01:41:03;;;;;;;0.70;0.60;;;11.00;99.90;;;;;;4979630;28;20725;-71
2023/05/19 01:43:33;;;;;;;1.13;0.60;;;10.90;99.90;;;;;;4986047;28;20585;-72
2023/05/19 01:46:02;;;;;;;0.60;0.40;;;10.90;99.90;;;;;;4981974;28;20349;-73
2023/05/19 01:48:31;;;;;;;0.60;0.50;;;10.90;99.90;;;;;;4977219;28;20693;-72
2023/05/19 01:50:59;;;;;;;0.60;0.50;;;10.90;99.90;;;;;;4985308;28;20205;-71
2023/05/19 01:53:27;;;;;;;0.60;0.50;;;10.90;99.90;;;;;;4987725;28;20938;-72
2023/05/19 01:55:56;;;;;;;4.15;0.70;;;10.90;99.90;;;;;;4983306;28;20217;-73
2023/05/19 01:58:33;;;;;;;0.70;0.70;;;10.90;99.90;;;;;;4985775;28;20210;-73
2023/05/19 02:01:11;;;;;;;0.90;0.60;;;10.90;99.90;;;;;;4988887;28;20292;-72
2023/05/19 02:04:08;;;;;;;0.90;0.70;;;10.80;99.90;;;;;;4987969;28;20226;-73
2023/05/19 02:06:45;;;;;;;0.60;0.57;;;10.80;99.90;;;;;;4988323;28;20308;-73
2023/05/19 02:09:18;;;;;;;0.80;0.60;;;10.80;99.90;;;;;;4992955;28;20686;-72
2023/05/19 02:11:55;;;;;;;0.60;0.50;;;10.90;99.90;;;;;;4991992;28;20206;-73
2023/05/19 02:14:29;;;;;;;0.68;0.60;;;10.90;99.90;;;;;;4990773;28;20676;-72
2023/05/19 02:17:00;;;;;;;1.02;0.50;;;10.80;99.90;;;;;;4990497;28;20646;-71
2023/05/19 02:19:30;;;;;;;0.60;0.40;;;10.80;99.90;;;;;;4986851;28;20256;-72
2023/05/19 02:21:58;;;;;;;0.77;0.52;;;10.80;99.90;;;;;;4990462;28;20300;-72
2023/05/19 02:24:26;;;;;;;0.60;0.40;;;10.90;99.90;;;;;;4989912;28;20217;-72
2023/05/19 02:26:54;;;;;;;0.90;0.60;;;10.90;99.90;;;;;;4990473;28;20229;-71
2023/05/19 02:29:22;;;;;;;0.60;0.40;;;10.80;99.90;;;;;;4989432;28;20735;-71
2023/05/19 02:31:50;;;;;;;1.65;0.80;;;10.70;99.90;;;;;;4991714;28;20214;-71
2023/05/19 02:34:19;;;;;;;0.60;0.50;;;10.70;99.90;;;;;;4990440;28;20249;-71
2023/05/19 02:36:48;;;;;;;0.70;0.50;;;10.80;99.90;;;;;;4990563;28;20254;-70
2023/05/19 02:39:16;;;;;;;0.85;0.60;;;10.80;99.90;;;;;;4989281;28;20202;-71
2023/05/19 02:41:44;;;;;;;0.70;0.63;;;10.90;99.90;;;;;;4992266;28;20732;-72
2023/05/19 02:44:12;;;;;;;0.70;0.50;;;10.90;99.90;;;;;;4990222;28;20206;-71
2023/05/19 02:46:40;;;;;;;0.80;0.52;;;10.80;99.90;;;;;;4984971;28;20241;-71
2023/05/19 02:49:08;;;;;;;0.57;0.43;;;10.80;99.90;;;;;;4988873;28;20665;-71
2023/05/19 02:51:37;;;;;;;0.80;0.50;;;10.70;99.90;;;;;;4985844;28;20203;-73
2023/05/19 02:54:05;;;;;;;0.80;0.50;;;10.70;99.90;;;;;;4986611;28;20210;-71
2023/05/19 02:56:33;;;;;;;0.82;0.60;;;10.80;99.90;;;;;;4983603;28;20238;-72
2023/05/19 02:59:01;;;;;;;0.63;0.50;;;10.70;99.90;;;;;;4992183;28;20214;-70
2023/05/19 03:01:31;;;;;;;0.75;0.57;;;10.80;99.90;;;;;;4982633;28;20230;-72
2023/05/19 03:03:59;;;;;;;0.70;0.50;;;10.80;99.90;;;;;;4989270;28;20202;-72
2023/05/19 03:06:28;;;;;;;0.70;0.60;;;10.70;99.90;;;;;;4987696;28;20241;-71
2023/05/19 03:08:57;;;;;;;0.60;0.50;;;10.80;99.90;;;;;;4992415;28;20206;-72
2023/05/19 03:11:25;;;;;;;0.75;0.50;;;10.90;99.90;;;;;;4984671;28;20277;-71
2023/05/19 03:13:53;;;;;;;0.60;0.40;;;10.90;99.90;;;;;;4989926;28;20627;-71
2023/05/19 03:16:21;;;;;;;0.77;0.57;;;10.90;99.90;;;;;;4989913;28;20230;-71
2023/05/19 03:18:49;;;;;;;0.70;0.60;;;11.00;99.90;;;;;;4986086;28;20202;-70
2023/05/19 03:21:17;;;;;;;0.60;0.50;;;10.90;99.90;;;;;;4982595;28;20206;-70
2023/05/19 03:23:45;;;;;;;0.70;0.50;;;10.70;99.90;;;;;;4980636;28;20218;-72
2023/05/19 03:26:15;;;;;;;0.70;0.50;;;10.70;99.90;;;;;;4990450;28;20292;-72
2023/05/19 03:28:43;;;;;;;0.60;0.40;;;10.60;99.90;;;;;;4984048;28;20625;-72
2023/05/19 03:31:11;;;;;;;0.80;0.63;;;10.70;99.90;;;;;;4992257;28;20210;-72
2023/05/19 03:33:39;;;;;;;0.68;0.50;;;10.70;99.90;;;;;;4990424;28;20218;-72
2023/05/19 03:36:07;;;;;;;0.60;0.50;;;10.60;99.90;;;;;;4986667;28;20229;-73
2023/05/19 03:38:35;;;;;;;0.75;0.60;;;10.50;99.90;;;;;;4986588;28;20277;-73
2023/05/19 03:41:04;;;;;;;0.82;0.60;;;10.60;99.90;;;;;;4983269;28;20214;-73
2023/05/19 03:43:33;;;;;;;0.80;0.68;;;10.50;99.90;;;;;;4979493;28;20264;-73
2023/05/19 03:46:01;;;;;;;0.70;0.50;;;10.60;99.90;;;;;;4984711;28;20257;-73
2023/05/19 03:48:29;;;;;;;0.60;0.50;;;10.50;99.90;;;;;;4979635;28;20833;-73
2023/05/19 03:50:57;;;;;;;0.60;0.40;;;10.60;99.90;;;;;;4980212;28;20210;-73
2023/05/19 03:53:26;;;;;;;0.60;0.57;;;10.50;99.90;;;;;;4986578;28;20210;-73
2023/05/19 03:55:55;;;;;;;0.88;0.60;;;10.50;99.90;;;;;;4988339;28;20218;-73
2023/05/19 03:58:23;;;;;;;0.60;0.40;;;10.60;99.90;;;;;;4989775;28;20210;-73
2023/05/19 04:00:52;;;;;;;0.73;0.70;;;10.70;99.90;;;;;;4988929;28;20211;-73
2023/05/19 04:03:20;;;;;;;1.10;0.63;;;10.70;99.90;;;;;;4965955;28;20217;-73
2023/05/19 04:05:48;;;;;;;0.70;0.60;;;10.80;99.90;;;;;;4982524;28;20666;-71
2023/05/19 04:08:16;;;;;;;1.00;0.50;;;10.80;99.90;;;;;;4988240;28;20685;-71
2023/05/19 04:10:44;;;;;;;0.60;0.40;;;10.80;99.90;;;;;;4986646;28;20856;-71
2023/05/19 04:13:12;;;;;;;0.75;0.63;;;10.80;99.90;;;;;;4990968;28;20209;-71
2023/05/19 04:15:40;;;;;;;0.88;0.82;;;10.80;99.90;;;;;;4987141;28;20209;-71
2023/05/19 04:18:10;;;;;;;2.05;0.70;;;10.80;99.90;;;;;;4980098;28;20282;-71
2023/05/19 04:20:38;;;;;;;1.65;0.60;;;10.80;99.90;;;;;;4987863;28;20228;-71
2023/05/19 04:23:06;;;;;;;0.60;0.50;;;10.80;99.90;;;;;;4982369;28;20590;-72
2023/05/19 04:25:34;;;;;;;1.23;0.50;;;10.80;99.90;;;;;;4979554;28;20206;-73
2023/05/19 04:28:03;;;;;;;0.50;0.40;;;10.80;99.90;;;;;;4991106;28;20665;-73
2023/05/19 04:30:30;;;;;;;0.98;0.52;;;10.80;99.90;;;;;;4987767;28;20206;-75
2023/05/19 04:32:59;;;;;;;0.60;0.47;;;10.80;99.90;;;;;;4988339;28;20201;-73
2023/05/19 04:35:29;;;;;;;0.80;0.75;;;10.80;99.90;;;;;;4982737;28;20206;-73
2023/05/19 04:37:57;;;;;;;0.68;0.57;;;10.80;99.90;;;;;;4986822;28;20223;-73
2023/05/19 04:40:25;;;;;;;0.60;0.45;;;10.80;99.90;;;;;;4974501;28;20210;-73
2023/05/19 04:42:53;;;;;;;0.70;0.50;;;10.80;99.90;;;;;;4977423;28;20225;-75
2023/05/19 04:45:22;;;;;;;0.60;0.60;;;10.90;99.90;;;;;;4986044;28;20210;-75
2023/05/19 04:47:51;;;;;;;0.60;0.60;;;11.00;99.90;;;;;;4988130;28;20249;-74
2023/05/19 04:50:19;;;;;;;0.80;0.75;;;11.00;99.90;;;;;;4987425;28;20214;-74
2023/05/19 04:52:48;;;;;;;0.60;0.40;;;11.00;99.90;;;;;;4990505;28;20241;-74
2023/05/19 04:55:16;;;;;;;1.80;0.70;;;11.20;99.90;;;;;;4991022;28;20209;-73
2023/05/19 04:57:44;;;;;;;1.02;0.70;;;11.20;99.90;;;;;;4990361;28;20238;-75
2023/05/19 05:00:14;;;;;;;1.45;0.70;;;11.30;99.90;;;;;;4988989;28;20218;-75
2023/05/19 05:02:42;;;;;;;0.60;0.50;;;11.50;99.90;;;;;;4975273;28;20685;-74
2023/05/19 05:05:10;;;;;;;1.77;0.75;;;11.70;99.90;;;;;;4983102;28;20725;-75
2023/05/19 05:07:38;;;;;;;0.57;0.47;;;11.70;99.90;;;;;;4985652;28;20598;-74
2023/05/19 05:10:09;;;;;;;0.70;0.60;;;11.60;99.90;;;;;;4986744;28;20229;-75
2023/05/19 05:12:37;;;;;;;0.50;0.40;;;11.60;99.90;;;;;;4985506;28;20216;-73
2023/05/19 05:15:07;;;;;;;0.63;0.50;;;11.50;99.90;;;;;;4986205;28;20209;-73
2023/05/19 05:17:36;;;;;;;1.20;0.90;;;11.50;99.90;;;;;;4980912;28;20230;-79
2023/05/19 05:20:05;;;;;;;1.33;0.75;;;11.60;99.90;;;;;;4981325;28;20220;-74
2023/05/19 05:22:34;;;;;;;1.15;0.60;;;11.70;99.90;;;;;;4984216;28;20206;-74
2023/05/19 05:25:03;;;;;;;0.90;0.70;;;11.80;99.90;;;;;;4987279;28;20209;-74
2023/05/19 05:27:33;;;;;;;0.60;0.52;;;12.10;99.90;;;;;;4981384;28;20225;-75
2023/05/19 05:30:01;;;;;;;0.63;0.55;;;12.20;99.90;;;;;;4982105;28;20206;-75
2023/05/19 05:32:29;;;;;;;0.60;0.50;;;12.30;99.90;;;;;;4987087;28;20216;-76
2023/05/19 05:34:57;;;;;;;0.70;0.50;;;12.30;99.90;;;;;;4983038;28;20218;-75
2023/05/19 05:37:25;;;;;;;0.60;0.45;;;12.30;99.90;;;;;;4983987;28;20237;-75
2023/05/19 05:39:53;;;;;;;1.10;0.60;;;12.30;99.90;;;;;;4981888;28;20703;-74
2023/05/19 05:42:21;;;;;;;0.60;0.50;;;12.30;99.90;;;;;;4987983;28;20209;-73
2023/05/19 05:44:51;;;;;;;1.40;0.60;;;12.40;99.90;;;;;;4986833;28;20240;-74
2023/05/19 05:47:19;;;;;;;0.70;0.60;;;12.50;99.90;;;;;;4980287;28;20304;-74
2023/05/19 05:49:48;;;;;;;0.60;0.50;;;12.60;99.90;;;;;;4988073;28;20209;-74
2023/05/19 05:52:21;;;;;;;0.63;0.40;;;12.70;99.90;;;;;;4990135;28;20214;-75
2023/05/19 05:54:49;;;;;;;0.60;0.40;;;12.90;99.90;;;;;;4984167;28;20206;-72
2023/05/19 05:57:17;;;;;;;1.13;0.82;;;13.10;99.90;;;;;;4987586;28;20581;-74
2023/05/19 05:59:46;;;;;;;0.80;0.65;;;13.10;99.90;;;;;;4985897;28;20221;-74
2023/05/19 06:02:15;;;;;;;0.60;0.40;;;13.20;99.90;;;;;;4982444;28;20273;-73
2023/05/19 06:04:43;;;;;;;0.50;0.40;;;13.20;99.90;;;;;;4985649;28;20236;-74
2023/05/19 06:07:11;;;;;;;0.60;0.47;;;13.30;99.90;;;;;;4983216;28;20225;-73
2023/05/19 06:09:39;;;;;;;0.50;0.40;;;13.40;99.90;;;;;;4986551;28;20214;-73
2023/05/19 06:12:08;;;;;;;0.63;0.45;;;13.40;99.90;;;;;;4981829;28;20225;-73
2023/05/19 06:14:36;;;;;;;0.63;0.50;;;13.50;99.90;;;;;;4987309;28;20581;-72
2023/05/19 06:17:04;;;;;;;0.65;0.45;;;13.50;99.90;;;;;;4985880;28;20230;-73
2023/05/19 06:19:33;;;;;;;3.30;0.80;;;13.50;99.90;;;;;;4987451;28;20210;-73
2023/05/19 06:22:01;;;;;;;0.80;0.50;;;13.60;99.90;;;;;;4987021;28;20206;-72
2023/05/19 06:24:29;;;;;;;0.50;0.40;;;13.70;99.90;;;;;;4986689;28;20277;-73
2023/05/19 06:26:57;;;;;;;0.80;0.50;;;13.80;99.90;;;;;;4984461;28;20234;-71
2023/05/19 06:29:25;;;;;;;3.22;0.60;;;13.90;99.90;;;;;;4987117;28;20201;-70
2023/05/19 06:31:53;;;;;;;0.60;0.50;;;13.90;99.90;;;;;;4987058;28;20206;-71
2023/05/19 06:34:21;;;;;;;0.60;0.40;;;13.90;99.90;;;;;;4983509;28;20214;-71
2023/05/19 06:36:50;;;;;;;0.70;0.40;;;13.90;99.90;;;;;;4986862;28;20677;-70
2023/05/19 06:39:18;;;;;;;0.75;0.47;;;14.10;99.90;;;;;;4986050;28;20206;-72
2023/05/19 06:41:46;;;;;;;0.70;0.63;;;14.10;99.90;;;;;;4990158;28;20218;-70
2023/05/19 06:44:14;;;;;;;0.50;0.40;;;14.30;99.90;;;;;;4990358;28;20222;-71
2023/05/19 06:46:43;;;;;;;0.70;0.60;;;14.20;99.90;;;;;;4989149;28;20581;-73
2023/05/19 06:49:11;;;;;;;0.70;0.50;;;14.20;99.90;;;;;;4990547;28;20208;-71
2023/05/19 06:51:39;;;;;;;0.93;0.65;;;14.10;99.90;;;;;;4989030;28;20268;-71
2023/05/19 06:54:09;;;;;;;0.60;0.40;;;14.10;99.90;;;;;;4988286;28;20205;-72
2023/05/19 06:56:37;;;;;;;0.60;0.50;;;14.10;99.90;;;;;;4992602;28;20288;-72
2023/05/19 06:59:05;;;;;;;0.50;0.40;;;14.00;99.90;;;;;;4989958;28;20333;-72
2023/05/19 07:01:33;;;;;;;0.60;0.40;;;14.00;99.90;;;;;;4988834;28;20661;-74
2023/05/19 07:04:01;;;;;;;0.60;0.40;;;14.00;99.90;;;;;;4990086;28;20302;-73
2023/05/19 07:06:30;;;;;;;1.60;1.10;;;14.10;99.90;;;;;;4988245;28;20248;-72
2023/05/19 07:08:58;;;;;;;2.55;0.98;;;14.10;99.90;;;;;;4989877;28;20665;-74
2023/05/19 07:11:28;;;;;;;0.60;0.55;;;14.00;99.90;;;;;;4988008;28;20206;-73
2023/05/19 07:13:56;;;;;;;0.50;0.40;;;14.10;99.90;;;;;;4987261;28;20213;-71
2023/05/19 07:16:23;;;;;;;0.60;0.50;;;14.20;99.90;;;;;;4970396;28;20229;-73
2023/05/19 07:18:51;;;;;;;0.55;0.40;;;14.20;99.90;;;;;;4987428;28;20201;-72
2023/05/19 07:21:19;;;;;;;0.60;0.40;;;14.40;99.90;;;;;;4987070;28;20210;-72
2023/05/19 07:23:47;;;;;;;0.65;0.50;;;14.40;99.90;;;;;;4987348;28;20238;-72
2023/05/19 07:26:15;;;;;;;0.70;0.50;;;14.20;99.90;;;;;;4985324;28;20697;-73
2023/05/19 07:28:44;;;;;;;0.55;0.40;;;14.10;99.90;;;;;;4971999;28;20577;-73
2023/05/19 07:31:12;;;;;;;0.70;0.68;;;14.30;99.90;;;;;;4991253;28;21934;-73
2023/05/19 07:33:41;;;;;;;0.52;0.40;;;14.60;99.90;;;;;;4986096;28;20210;-73
2023/05/19 07:36:08;;;;;;;0.60;0.50;;;14.60;99.90;;;;;;4989707;28;20229;-71
2023/05/19 07:38:36;;;;;;;0.50;0.40;;;14.60;99.90;;;;;;4984069;28;20210;-74
2023/05/19 07:41:04;;;;;;;0.50;0.32;;;14.60;99.90;;;;;;4986363;28;20336;-71
2023/05/19 07:43:33;;;;;;;0.95;0.50;;;14.70;99.90;;;;;;4984874;28;20225;-73
2023/05/19 07:46:02;;;;;;;0.57;0.40;;;14.70;99.90;;;;;;4984360;28;20288;-71
2023/05/19 07:48:30;;;;;;;0.60;0.40;;;14.70;99.90;;;;;;4986176;28;20629;-72
2023/05/19 07:50:58;;;;;;;0.60;0.50;;;14.70;99.90;;;;;;4986112;28;20208;-73
2023/05/19 07:53:26;;;;;;;0.60;0.45;;;14.80;99.90;;;;;;4990635;28;20206;-73
2023/05/19 07:55:55;;;;;;;0.93;0.50;;;15.10;99.90;;;;;;4991253;28;20225;-73
2023/05/19 07:58:25;;;;;;;0.60;0.40;;;15.50;99.90;;;;;;4991813;28;20205;-73
2023/05/19 08:00:53;;;;;;;0.60;0.40;;;15.70;99.90;;;;;;4989782;28;20708;-73
2023/05/19 08:03:22;;;;;;;0.60;0.40;;;15.80;99.90;;;;;;4986101;28;20198;-73
2023/05/19 08:05:51;;;;;;;0.70;0.60;;;15.90;99.90;;;;;;4984380;28;20304;-73
2023/05/19 08:08:19;;;;;;;0.60;0.40;;;16.00;99.90;;;;;;4985269;28;20280;-73
2023/05/19 08:10:47;;;;;;;0.60;0.40;;;16.20;99.90;;;;;;4986307;28;20210;-74
2023/05/19 08:13:15;;;;;;;0.60;0.40;;;16.40;99.90;;;;;;4984875;28;20265;-74
2023/05/19 08:15:43;;;;;;;0.60;0.50;;;16.50;99.90;;;;;;4987609;28;20246;-73
2023/05/19 08:18:11;;;;;;;0.50;0.40;;;16.40;99.90;;;;;;4988298;28;20248;-73
2023/05/19 08:20:40;;;;;;;0.60;0.50;;;16.40;99.90;;;;;;4985331;28;20205;-75
2023/05/19 08:23:08;;;;;;;0.60;0.40;;;16.40;99.90;;;;;;4986485;28;20215;-73
2023/05/19 08:25:36;;;;;;;0.70;0.50;;;16.40;99.90;;;;;;4987386;28;20226;-73
2023/05/19 08:28:04;;;;;;;0.60;0.40;;;16.50;99.90;;;;;;4988454;28;20293;-73
2023/05/19 08:30:32;;;;;;;0.80;0.80;;;16.80;99.90;;;;;;4985846;28;20212;-73
2023/05/19 08:33:00;;;;;;;0.60;0.40;;;16.90;99.90;;;;;;4979753;28;20218;-73
2023/05/19 08:35:29;;;;;;;1.55;0.70;;;17.20;99.90;;;;;;4983718;28;20298;-73
2023/05/19 08:37:58;;;;;;;0.50;0.32;;;17.30;99.90;;;;;;4984499;28;20229;-73
2023/05/19 08:40:30;;;;;;;0.60;0.50;;;17.30;99.90;;;;;;4985860;28;20217;-74
2023/05/19 08:42:58;;;;;;;0.70;0.52;;;17.50;99.90;;;;;;4984679;28;20264;-75
2023/05/19 08:45:27;;;;;;;0.60;0.30;;;17.70;99.90;;;;;;4987153;28;20222;-74
2023/05/19 08:47:55;;;;;;;0.60;0.40;;;17.90;99.90;;;;;;4985342;28;20312;-72
2023/05/19 08:50:30;;;;;;;1.33;0.50;;;18.20;99.90;;;;;;4983949;28;20206;-74
2023/05/19 08:53:08;;;;;;;0.50;0.40;;;18.40;99.90;;;;;;4988232;28;20220;-72
2023/05/19 08:56:01;;;;;;;0.60;0.40;;;18.40;99.90;;;;;;4987545;28;20234;-73
2023/05/19 08:58:30;;;;;;;0.60;0.40;;;18.60;99.90;;;;;;4988761;28;20703;-71
2023/05/19 09:01:00;;;;;;;0.70;0.57;;;18.80;99.90;;;;;;4985806;28;20261;-76
2023/05/19 09:03:29;;;;;;;0.60;0.40;;;18.90;99.50;;;;;;4988209;28;20217;-74
2023/05/19 09:05:57;;;;;;;0.60;0.50;;;18.80;99.20;;;;;;4986655;28;20237;-76
2023/05/19 09:08:26;;;;;;;0.60;0.47;;;18.50;98.80;;;;;;4983747;28;20290;-74
2023/05/19 09:10:54;;;;;;;0.60;0.50;;;18.40;99.50;;;;;;4977812;28;20707;-75
2023/05/19 09:13:23;;;;;;;0.80;0.65;;;18.70;99.90;;;;;;4984520;28;20673;-77
2023/05/19 09:15:53;;;;;;;0.50;0.40;;;18.90;99.00;;;;;;4984892;28;20209;-76
2023/05/19 09:18:20;;;;;;;0.70;0.50;;;19.20;98.70;;;;;;4985791;28;20217;-74
2023/05/19 09:20:48;;;;;;;0.60;0.40;;;19.30;97.60;;;;;;4987720;28;20218;-74
2023/05/19 09:23:18;;;;;;;0.70;0.43;;;19.40;97.90;;;;;;4984053;28;20214;-73
2023/05/19 09:25:52;;;;;;;1.05;0.70;;;19.60;97.90;;;;;;4985749;28;20233;-73
2023/05/19 09:28:24;;;;;;;0.73;0.73;;;19.80;97.20;;;;;;4969165;28;20218;-72
2023/05/19 09:31:00;;;;;;;0.60;0.40;;;19.80;95.50;;;;;;4982314;28;20724;-74
2023/05/19 09:33:28;;;;;;;0.60;0.40;;;19.80;97.00;;;;;;4986769;28;20295;-74
2023/05/19 09:35:56;;;;;;;0.50;0.30;;;19.90;96.50;;;;;;4985334;28;20218;-72
2023/05/19 09:38:25;;;;;;;0.60;0.40;;;20.00;95.40;;;;;;4987712;28;20830;-74
2023/05/19 09:40:56;;;;;;;0.50;0.40;;;20.20;96.00;;;;;;4983350;28;20206;-73
2023/05/19 09:43:26;;;;;;;0.70;0.40;;;20.10;94.90;;;;;;4981563;28;20212;-74
2023/05/19 09:45:56;;;;;;;0.60;0.40;;;20.00;95.60;;;;;;4987052;28;20229;-73
2023/05/19 09:48:26;;;;;;;0.60;0.45;;;19.70;95.80;;;;;;4987579;28;20697;-74
2023/05/19 09:50:56;;;;;;;0.50;0.30;;;19.80;93.40;;;;;;4984470;28;20209;-74
2023/05/19 09:53:24;;;;;;;0.60;0.55;;;20.20;94.30;;;;;;4988211;28;20215;-72
2023/05/19 09:55:57;;;;;;;0.70;0.50;;;20.30;94.70;;;;;;4985288;28;20212;-73
2023/05/19 09:58:25;;;;;;;0.60;0.40;;;20.30;93.50;;;;;;4985003;28;20249;-74
2023/05/19 10:00:54;;;;;;;0.65;0.45;;;20.50;94.30;;;;;;4981633;28;20215;-73
2023/05/19 10:03:23;;;;;;;1.15;0.40;;;20.50;93.30;;;;;;4983558;28;20225;-73
2023/05/19 10:05:52;;;;;;;0.50;0.32;;;20.50;94.90;;;;;;4985918;28;20227;-74
2023/05/19 10:08:20;;;;;;;1.05;0.60;;;20.50;93.40;;;;;;4985272;28;20217;-73
2023/05/19 10:10:48;;;;;;;0.68;0.52;;;20.50;93.00;;;;;;4987602;28;20214;-73
2023/05/19 10:13:18;;;;;;;0.52;0.40;;;20.70;94.00;;;;;;4982587;28;20210;-72
2023/05/19 10:15:47;;;;;;;0.60;0.40;;;20.50;92.60;;;;;;4989423;28;20249;-73
2023/05/19 10:18:28;;;;;;;0.60;0.40;;;20.80;92.40;;;;;;4989556;28;20238;-73
2023/05/19 10:20:57;;;;;;;0.98;0.40;;;20.80;91.90;;;;;;4989821;28;20239;-74
2023/05/19 10:23:25;;;;;;;0.60;0.40;;;20.50;90.70;;;;;;4989216;28;20215;-73
2023/05/19 10:25:56;;;;;;;0.55;0.43;;;20.40;91.40;;;;;;4988404;28;20304;-73
2023/05/19 10:28:34;;;;;;;0.60;0.40;;;20.40;91.10;;;;;;4990081;28;20218;-74
2023/05/19 10:31:07;;;;;;;0.52;0.40;;;20.20;91.40;;;;;;4989838;28;20210;-74
2023/05/19 10:33:47;;;;;;;0.52;0.40;;;20.20;92.30;;;;;;4990652;28;20232;-73
2023/05/19 10:36:34;;;;;;;0.57;0.40;;;20.30;92.50;;;;;;4988600;28;20297;-74
2023/05/19 10:39:06;;;;;;;0.60;0.40;;;20.30;91.60;;;;;;4990495;28;20202;-74
2023/05/19 10:41:44;;;;;;;1.25;0.40;;;21.00;92.30;;;;;;4983861;28;20209;-73
2023/05/19 10:44:24;;;;;;;0.60;0.40;;;21.30;90.70;;;;;;4988131;28;20215;-73
2023/05/19 10:46:53;;;;;;;0.60;0.40;;;21.60;91.50;;;;;;4986424;28;20226;-74
2023/05/19 10:49:23;;;;;;;0.60;0.50;;;21.70;91.80;;;;;;4987821;28;20203;-73
2023/05/19 10:51:54;;;;;;;0.60;0.40;;;21.60;91.40;;;;;;4984993;28;20262;-73
2023/05/19 10:54:42;;;;;;;0.80;0.50;;;21.40;91.30;;;;;;4988772;28;20216;-74
2023/05/19 10:57:15;;;;;;;0.85;0.63;;;21.40;91.90;;;;;;4984339;28;20321;-73
2023/05/19 10:59:44;;;;;;;0.70;0.40;;;20.80;91.90;;;;;;4986308;28;20225;-73
2023/05/19 11:02:37;;;;;;;0.60;0.40;;;20.80;91.30;;;;;;4987488;28;20211;-73
2023/05/19 11:05:09;;;;;;;0.60;0.40;;;20.60;90.50;;;;;;4987088;28;20237;-73
2023/05/19 11:07:41;;;;;;;0.50;0.40;;;21.00;91.50;;;;;;4986568;28;20235;-73
2023/05/19 11:10:09;;;;;;;0.60;0.50;;;21.30;91.00;;;;;;4982125;28;20269;-73
2023/05/19 11:12:42;;;;;;;0.57;0.40;;;21.50;90.50;;;;;;4992391;28;20206;-71
2023/05/19 11:15:13;;;;;;;0.70;0.40;;;21.70;90.40;;;;;;4980346;28;20206;-71
2023/05/19 11:17:42;;;;;;;1.08;0.50;;;21.80;87.90;;;;;;4984720;28;20227;-72
2023/05/19 11:20:22;;;;;;;0.50;0.30;;;21.90;87.00;;;;;;4984226;28;20672;-72
2023/05/19 11:23:09;;;;;;;0.60;0.40;;;21.90;85.10;;;;;;4981306;28;20786;-71
2023/05/19 11:25:44;;;;;;;0.60;0.40;;;22.60;88.30;;;;;;4977777;28;20204;-72
2023/05/19 11:28:12;;;;;;;0.60;0.43;;;23.00;85.60;;;;;;4988424;28;20211;-71
2023/05/19 11:30:44;;;;;;;1.02;0.45;;;23.20;86.40;;;;;;4985710;28;20208;-70
2023/05/19 11:33:13;;;;;;;0.60;0.40;;;23.00;86.30;;;;;;4983205;28;20211;-72
2023/05/19 11:35:43;;;;;;;0.77;0.77;;;22.90;85.80;;;;;;4986030;28;20204;-70
2023/05/19 11:38:11;;;;;;;0.50;0.30;;;22.20;86.90;;;;;;4982401;28;20276;-72
2023/05/19 11:40:40;;;;;;;0.60;0.40;;;22.00;86.40;;;;;;4981311;28;20677;-72
2023/05/19 11:43:08;;;;;;;2.50;1.13;;;21.70;87.80;;;;;;4973494;28;20209;-71
2023/05/19 11:45:36;;;;;;;0.50;0.40;;;21.70;87.70;;;;;;4973345;28;20216;-71
2023/05/19 11:48:06;;;;;;;0.60;0.40;;;22.00;88.50;;;;;;4984322;28;20229;-71
2023/05/19 11:50:35;;;;;;;0.60;0.40;;;22.00;86.60;;;;;;4977923;28;20575;-72
2023/05/19 11:53:03;;;;;;;0.60;0.40;;;22.20;86.10;;;;;;4973117;28;20239;-73
2023/05/19 11:55:32;;;;;;;0.98;0.95;;;22.00;86.80;;;;;;4973554;28;20212;-72
2023/05/19 11:58:01;;;;;;;0.57;0.43;;;22.40;87.30;;;;;;4972831;28;20239;-72
2023/05/19 12:00:37;;;;;;;0.82;0.68;;;21.90;86.70;;;;;;4973215;28;20675;-73
2023/05/19 12:03:07;;;;;;;0.50;0.40;;;21.80;90.10;;;;;;4980384;28;20254;-72
2023/05/19 12:05:37;;;;;;;0.50;0.40;;;21.70;89.90;;;;;;4979684;28;20216;-72
2023/05/19 12:08:10;;;;;;;0.95;0.70;;;21.60;90.00;;;;;;4973080;28;20411;-72
2023/05/19 12:10:39;;;;;;;0.60;0.40;;;21.80;90.20;;;;;;4988386;28;20218;-72
2023/05/19 12:13:08;;;;;;;0.63;0.50;;;22.10;88.40;;;;;;4989091;28;20746;-72
2023/05/19 12:15:37;;;;;;;0.60;0.60;;;21.90;90.10;;;;;;4986095;28;20207;-71
2023/05/19 12:18:07;;;;;;;0.70;0.50;;;21.80;88.70;;;;;;4978375;28;20291;-72
2023/05/19 12:20:36;;;;;;;0.70;0.40;;;21.50;88.70;;;;;;4972804;28;20290;-72
2023/05/19 12:23:05;;;;;;;0.60;0.50;;;21.60;90.20;;;;;;4972441;28;20206;-71
2023/05/19 12:25:33;;;;;;;0.70;0.50;;;21.60;90.20;;;;;;4972868;28;20672;-72
2023/05/19 12:28:03;;;;;;;0.60;0.45;;;21.90;89.60;;;;;;4989125;28;20297;-73
2023/05/19 12:30:31;;;;;;;0.50;0.40;;;22.40;90.00;;;;;;4988659;28;20210;-73
2023/05/19 12:33:02;;;;;;;0.90;0.50;;;22.50;87.20;;;;;;4975958;28;20203;-72
2023/05/19 12:35:32;;;;;;;0.60;0.40;;;22.40;88.50;;;;;;4975714;28;20211;-72
2023/05/19 12:38:04;;;;;;;0.50;0.40;;;22.40;87.80;;;;;;4972107;28;20228;-72
2023/05/19 12:40:33;;;;;;;0.50;0.30;;;22.50;89.30;;;;;;4972468;28;20667;-71
2023/05/19 12:43:02;;;;;;;0.50;0.40;;;22.70;88.30;;;;;;4972129;28;20240;-73
2023/05/19 12:45:34;;;;;;;1.77;0.40;;;23.00;89.60;;;;;;4978750;28;20235;-72
2023/05/19 12:48:04;;;;;;;0.60;0.40;;;22.90;88.00;;;;;;4982909;28;20323;-72
2023/05/19 12:50:33;;;;;;;0.70;0.40;;;23.10;90.10;;;;;;4989607;28;20565;-73
2023/05/19 12:53:02;;;;;;;1.02;0.40;;;23.10;88.00;;;;;;4986916;28;20211;-73
2023/05/19 12:55:30;;;;;;;0.60;0.45;;;23.30;88.60;;;;;;4972333;28;20205;-72
2023/05/19 12:57:58;;;;;;;0.60;0.40;;;23.40;87.60;;;;;;4984719;23;20246;-65
2023/05/19 13:00:29;;;;;;;0.60;0.60;;;23.40;87.90;;;;;;4952613;28;20716;-65
2023/05/19 13:03:00;;;;;;;0.60;0.40;;;23.10;89.00;;;;;;4952495;28;20222;-66